Time;durP1;ratioP1;P1;durP2;ratioP2;P2;SDS_P1;SDS_P2;PMS_P1;PMS_P2;Temp;Humidity;BMP_temperature;BMP_pressure;BME280_temperature;BME280_humidity;BME280_pressure;Samples;Min_cycle;Max_cycle;Signal;HPM_P1;HPM_P2
2022/11/08 00:01:47;;;;;;;;;;;;;;;11.55;100.00;100755.66;5030153;28;19924;-78
2022/11/08 00:04:13;;;;;;;;;;;;;;;11.54;100.00;100749.50;5027555;28;19929;-77
2022/11/08 00:14:52;;;;;;;;;;;;;;;11.57;100.00;100745.84;5023129;28;20433;-78
2022/11/08 00:17:18;;;;;;;;;;;;;;;11.56;100.00;100741.50;5027494;28;19928;-78
2022/11/08 00:19:43;;;;;;;;;;;;;;;11.58;100.00;100746.69;5042173;28;21530;-78
2022/11/08 00:22:09;;;;;;;;;;;;;;;11.58;100.00;100741.38;5042876;28;19928;-78
2022/11/08 00:24:35;;;;;;;;;;;;;;;11.58;100.00;100736.94;5042841;28;19929;-77
2022/11/08 00:27:02;;;;;;;;;;;;;;;11.59;100.00;100737.81;5028593;28;19933;-78
2022/11/08 00:29:27;;;;;;;;;;;;;;;11.59;100.00;100737.81;5013236;28;19925;-78
2022/11/08 00:31:53;;;;;;;;;;;;;;;11.57;100.00;100726.41;5040361;28;19925;-78
2022/11/08 00:34:18;;;;;;;;;;;;;;;11.57;100.00;100737.03;5042516;28;20057;-78
2022/11/08 00:36:43;;;;;;;;;;;;;;;11.54;100.00;100728.31;5026648;28;19925;-78
2022/11/08 00:39:09;;;;;;;;;;;;;;;11.52;100.00;100738.13;5042515;28;19933;-78
2022/11/08 00:41:34;;;;;;;;;;;;;;;11.51;100.00;100747.00;5042486;28;20020;-78
2022/11/08 00:44:00;;;;;;;;;;;;;;;11.50;100.00;100739.16;5042249;28;20391;-77
2022/11/08 00:46:25;;;;;;;;;;;;;;;11.49;100.00;100732.97;5040198;28;19929;-77
2022/11/08 00:48:51;;;;;;;;;;;;;;;11.49;100.00;100732.13;5042355;28;19929;-77
2022/11/08 00:51:16;;;;;;;;;;;;;;;11.48;100.00;100725.97;5060527;28;19928;-78
2022/11/08 00:53:41;;;;;;;;;;;;;;;11.46;100.00;100725.19;5045891;28;20391;-78
2022/11/08 00:56:08;;;;;;;;;;;;;;;11.45;100.00;100720.84;5023950;28;19933;-77
2022/11/08 00:58:34;;;;;;;;;;;;;;;11.43;100.00;100722.69;5043607;28;19932;-78
2022/11/08 01:00:59;;;;;;;;;;;;;;;11.41;100.00;100724.56;5046781;28;19955;-78
2022/11/08 01:03:25;;;;;;;;;;;;;;;11.39;100.00;100723.78;5047143;28;19940;-78
2022/11/08 01:05:51;;;;;;;;;;;;;;;11.36;100.00;100723.94;5033187;28;19928;-77
2022/11/08 01:08:17;;;;;;;;;;;;;;;11.34;100.00;100723.16;5026964;28;20019;-77
2022/11/08 01:10:44;;;;;;;;;;;;;;;11.29;100.00;100726.03;5029261;28;20278;-77
2022/11/08 01:13:09;;;;;;;;;;;;;;;11.26;100.00;100718.22;5043591;28;21685;-77
2022/11/08 01:15:36;;;;;;;;;;;;;;;11.23;100.00;100716.59;5032404;28;19932;-78
2022/11/08 01:18:02;;;;;;;;;;;;;;;11.20;100.00;100716.75;5030085;28;19924;-78
2022/11/08 01:20:27;;;;;;;;;;;;;;;11.18;100.00;100707.16;5030140;28;19932;-78
2022/11/08 01:22:53;;;;;;;;;;;;;;;11.17;100.00;100714.25;5045621;28;20434;-78
2022/11/08 01:25:18;;;;;;;;;;;;;;;11.14;100.00;100711.78;5043538;28;19920;-77
2022/11/08 01:27:43;;;;;;;;;;;;;;;11.10;100.00;100710.19;5045365;28;19929;-78
2022/11/08 01:30:09;;;;;;;;;;;;;;;11.08;100.00;100714.72;5045570;28;19972;-77
2022/11/08 01:32:34;;;;;;;;;;;;;;;11.05;100.00;100709.59;5026591;28;19936;-77
2022/11/08 01:35:00;;;;;;;;;;;;;;;11.03;100.00;100720.25;5030247;28;19924;-78
2022/11/08 01:37:25;;;;;;;;;;;;;;;10.99;100.00;100714.25;5045596;28;19936;-77
2022/11/08 01:39:50;;;;;;;;;;;;;;;10.96;100.00;100708.25;5045858;28;20300;-78
2022/11/08 01:42:16;;;;;;;;;;;;;;;10.92;100.00;100704.88;5045024;28;19931;-77
2022/11/08 01:45:00;;;;;;;;;;;;;;;10.90;100.00;100708.53;5045228;28;20027;-78
2022/11/08 01:47:25;;;;;;;;;;;;;;;10.85;100.00;100711.41;5045788;28;19974;-78
2022/11/08 01:49:51;;;;;;;;;;;;;;;10.84;100.00;100704.41;5025881;28;20048;-78
2022/11/08 01:52:29;;;;;;;;;;;;;;;10.81;100.00;100700.13;5029593;28;19951;-78
2022/11/08 01:55:13;;;;;;;;;;;;;;;10.77;100.00;100697.66;5045598;28;19924;-77
2022/11/08 01:57:41;;;;;;;;;;;;;;;10.73;100.00;100692.53;5045430;28;19929;-77
2022/11/08 02:00:09;;;;;;;;;;;;;;;10.68;100.00;100685.75;5016392;28;19925;-77
2022/11/08 02:02:34;;;;;;;;;;;;;;;10.63;100.00;100683.34;5029701;28;20563;-77
2022/11/08 02:05:00;;;;;;;;;;;;;;;10.59;100.00;100682.59;5029768;28;19924;-77
2022/11/08 02:07:26;;;;;;;;;;;;;;;10.56;100.00;100680.13;5029416;28;19960;-77
2022/11/08 02:09:52;;;;;;;;;;;;;;;10.53;100.00;100676.75;5042588;28;20231;-77
2022/11/08 02:12:18;;;;;;;;;;;;;;;10.48;100.00;100676.13;5040968;28;20643;-78
2022/11/08 02:14:43;;;;;;;;;;;;;;;10.45;100.00;100663.88;5028079;28;20525;-77
2022/11/08 02:17:08;;;;;;;;;;;;;;;10.40;100.00;100658.78;5028522;28;20303;-76
2022/11/08 02:19:39;;;;;;;;;;;;;;;10.36;100.00;100667.81;5030435;28;19933;-77
2022/11/08 02:22:05;;;;;;;;;;;;;;;10.31;100.00;100664.53;5030805;28;19978;-78
2022/11/08 02:24:31;;;;;;;;;;;;;;;10.27;100.00;100662.94;5041382;28;20051;-76
2022/11/08 02:26:56;;;;;;;;;;;;;;;10.23;100.00;100654.28;5043661;28;19935;-77
2022/11/08 02:29:29;;;;;;;;;;;;;;;10.21;100.00;100663.22;5029972;28;19955;-77
2022/11/08 02:31:54;;;;;;;;;;;;;;;10.17;100.00;100658.09;5030639;28;19931;-77
2022/11/08 02:34:21;;;;;;;;;;;;;;;10.14;100.00;100652.94;5043623;28;19924;-77
2022/11/08 02:36:47;;;;;;;;;;;;;;;10.11;100.00;100642.50;5028195;28;20019;-77
2022/11/08 02:39:12;;;;;;;;;;;;;;;10.10;100.00;100650.50;5041117;28;19988;-77
2022/11/08 02:41:37;;;;;;;;;;;;;;;10.05;100.00;100646.31;5029447;28;19929;-77
2022/11/08 02:44:03;;;;;;;;;;;;;;;10.03;100.00;100644.66;5023577;28;19980;-77
2022/11/08 02:46:28;;;;;;;;;;;;;;;10.00;100.00;100650.06;5024464;28;21427;-77
2022/11/08 02:48:54;;;;;;;;;;;;;;;9.98;100.00;100646.66;5024430;28;20058;-77
2022/11/08 02:51:19;;;;;;;;;;;;;;;9.96;100.00;100645.88;5043671;28;19932;-76
2022/11/08 02:53:44;;;;;;;;;;;;;;;9.94;100.00;100642.41;5042936;28;19936;-76
2022/11/08 02:56:10;;;;;;;;;;;;;;;9.91;100.00;100648.69;5042751;28;20040;-77
2022/11/08 02:58:35;;;;;;;;;;;;;;;9.89;100.00;100647.91;5027201;28;19928;-77
2022/11/08 03:01:01;;;;;;;;;;;;;;;9.88;100.00;100644.44;5027856;28;19928;-77
2022/11/08 03:03:26;;;;;;;;;;;;;;;9.88;100.00;100654.13;5042778;28;19932;-77
2022/11/08 03:05:51;;;;;;;;;;;;;;;9.85;100.00;100641.91;5043439;28;20347;-75
2022/11/08 03:08:17;;;;;;;;;;;;;;;9.83;100.00;100643.78;5040204;28;19940;-76
2022/11/08 03:10:42;;;;;;;;;;;;;;;9.81;100.00;100636.84;4993533;28;1799555;-76
2022/11/08 03:13:08;;;;;;;;;;;;;;;9.80;100.00;100633.31;5043557;28;19925;-76
2022/11/08 03:15:33;;;;;;;;;;;;;;;9.78;100.00;100633.41;5010721;28;20397;-76
2022/11/08 03:17:59;;;;;;;;;;;;;;;9.78;100.00;100628.13;5023604;28;20276;-76
2022/11/08 03:20:24;;;;;;;;;;;;;;;9.77;100.00;100633.47;5057466;28;19931;-76
2022/11/08 03:22:55;;;;;;;;;;;;;;;9.75;100.00;100625.59;5041094;28;19925;-76
2022/11/08 03:25:21;;;;;;;;;;;;;;;9.75;100.00;100630.91;5043084;28;19924;-76
2022/11/08 03:27:46;;;;;;;;;;;;;;;9.75;100.00;100619.47;5024011;28;19943;-76
2022/11/08 03:30:11;;;;;;;;;;;;;;;9.74;100.00;100623.03;5058037;28;19936;-77
2022/11/08 03:32:37;;;;;;;;;;;;;;;9.73;100.00;100611.63;5042843;28;20362;-77
2022/11/08 03:35:02;;;;;;;;;;;;;;;9.74;100.00;100615.97;5026770;28;20517;-76
2022/11/08 03:37:28;;;;;;;;;;;;;;;9.73;100.00;100616.03;5044232;28;20116;-76
2022/11/08 03:39:53;;;;;;;;;;;;;;;9.73;100.00;100610.75;5042933;28;19927;-77
2022/11/08 03:42:18;;;;;;;;;;;;;;;9.75;100.00;100604.47;5033658;28;20318;-76
2022/11/08 03:44:44;;;;;;;;;;;;;;;9.74;100.00;100602.75;5017472;28;20427;-76
2022/11/08 03:47:09;;;;;;;;;;;;;;;9.74;100.00;100602.75;5042677;28;19932;-76
2022/11/08 03:49:34;;;;;;;;;;;;;;;9.73;100.00;100594.88;5027861;28;19936;-77
2022/11/08 03:52:00;;;;;;;;;;;;;;;9.72;100.00;100593.16;5028188;28;20371;-77
2022/11/08 03:54:25;;;;;;;;;;;;;;;9.70;100.00;100592.38;5026412;28;19979;-77
2022/11/08 03:56:51;;;;;;;;;;;;;;;9.67;100.00;100590.75;5043690;28;19924;-77
2022/11/08 03:59:16;;;;;;;;;;;;;;;9.65;100.00;100587.31;5043621;28;19932;-77
2022/11/08 04:01:41;;;;;;;;;;;;;;;9.62;100.00;100587.44;5057146;28;19929;-77
2022/11/08 04:04:07;;;;;;;;;;;;;;;9.60;100.00;100584.03;5042719;28;19928;-77
2022/11/08 04:06:32;;;;;;;;;;;;;;;9.57;100.00;100585.00;5016732;28;20372;-76
2022/11/08 04:08:58;;;;;;;;;;;;;;;9.56;100.00;100583.31;5042892;28;19968;-77
2022/11/08 04:16:52;;;;;;;;;;;;;;;9.51;100.00;100570.31;5042994;28;20478;-76
2022/11/08 04:22:01;;;;;;;;;;;;;;;9.49;100.00;100579.22;5043416;28;19932;-78
2022/11/08 04:24:27;;;;;;;;;;;;;;;9.47;100.00;100571.34;5042187;28;19943;-77
2022/11/08 04:26:52;;;;;;;;;;;;;;;9.47;100.00;100583.69;5026999;28;19950;-77
2022/11/08 04:29:17;;;;;;;;;;;;;;;9.47;100.00;100574.00;5042988;28;19957;-78
2022/11/08 04:31:43;;;;;;;;;;;;;;;9.48;100.00;100575.72;5057057;28;19939;-77
2022/11/08 04:34:08;;;;;;;;;;;;;;;9.49;100.00;100574.78;5027240;28;19928;-77
2022/11/08 04:36:34;;;;;;;;;;;;;;;9.50;100.00;100571.19;5026999;28;19928;-77
2022/11/08 04:38:59;;;;;;;;;;;;;;;9.50;100.00;100560.63;5027588;28;20648;-77
2022/11/08 04:41:25;;;;;;;;;;;;;;;9.50;100.00;100552.72;5042998;28;20054;-77
2022/11/08 04:43:51;;;;;;;;;;;;;;;9.49;100.00;100552.81;5016326;28;20018;-77
2022/11/08 04:46:20;;;;;;;;;;;;;;;9.48;100.00;100554.56;5042514;28;19985;-77
2022/11/08 04:48:46;;;;;;;;;;;;;;;9.47;100.00;100541.41;5029903;28;20455;-77
2022/11/08 04:51:11;;;;;;;;;;;;;;;9.47;100.00;100550.22;5042580;28;19942;-77
2022/11/08 04:53:37;;;;;;;;;;;;;;;9.46;100.00;100545.00;5042585;28;19924;-77
2022/11/08 04:56:03;;;;;;;;;;;;;;;9.45;100.00;100541.50;5026855;28;19924;-77
2022/11/08 04:58:33;;;;;;;;;;;;;;;9.44;100.00;100544.22;5042741;28;19925;-77
2022/11/08 05:00:59;;;;;;;;;;;;;;;9.44;100.00;100531.00;5040856;28;20379;-76
2022/11/08 05:03:24;;;;;;;;;;;;;;;9.42;100.00;100523.13;5042814;28;20116;-76
2022/11/08 05:05:50;;;;;;;;;;;;;;;9.43;100.00;100526.66;5042749;28;19937;-76
2022/11/08 05:08:15;;;;;;;;;;;;;;;9.42;100.00;100528.41;5041679;28;19925;-76
2022/11/08 05:10:40;;;;;;;;;;;;;;;9.41;100.00;100521.44;5042135;28;20476;-77
2022/11/08 05:13:06;;;;;;;;;;;;;;;9.40;100.00;100530.28;5043317;28;19929;-77
2022/11/08 05:15:31;;;;;;;;;;;;;;;9.38;100.00;100522.41;5041405;28;19929;-77
2022/11/08 05:17:57;;;;;;;;;;;;;;;9.37;100.00;100511.91;5022763;28;20374;-77
2022/11/08 05:23:22;;;;;;;;;;;;;;;9.34;100.00;100497.09;5041928;28;19921;-77
2022/11/08 05:25:48;;;;;;;;;;;;;;;9.32;100.00;100498.91;5011292;28;20516;-77
2022/11/08 05:28:13;;;;;;;;;;;;;;;9.31;100.00;100494.56;5010316;28;21562;-77
2022/11/08 05:30:39;;;;;;;;;;;;;;;9.29;100.00;100491.16;5038970;28;20006;-77
2022/11/08 05:33:04;;;;;;;;;;;;;;;9.27;100.00;100476.28;5042414;28;19982;-77
2022/11/08 05:35:31;;;;;;;;;;;;;;;9.25;100.00;100479.00;5027879;28;21649;-77
2022/11/08 05:37:57;;;;;;;;;;;;;;;9.23;100.00;100475.59;5044740;28;19929;-77
2022/11/08 05:40:22;;;;;;;;;;;;;;;9.22;100.00;100468.59;5029887;28;19935;-76
2022/11/08 05:42:47;;;;;;;;;;;;;;;9.20;100.00;100459.84;5029610;28;19932;-77
2022/11/08 05:45:13;;;;;;;;;;;;;;;9.20;100.00;100457.22;5025952;28;19929;-76
2022/11/08 05:47:42;;;;;;;;;;;;;;;9.22;100.00;100471.22;5032705;28;19932;-76
2022/11/08 05:50:07;;;;;;;;;;;;;;;9.22;100.00;100464.16;5015522;28;19924;-76
2022/11/08 05:52:33;;;;;;;;;;;;;;;9.23;100.00;100454.44;5032077;28;19932;-76
2022/11/08 05:54:58;;;;;;;;;;;;;;;9.25;100.00;100455.22;5045658;28;19972;-77
2022/11/08 05:57:23;;;;;;;;;;;;;;;9.27;100.00;100450.75;5045519;28;20031;-77
2022/11/08 05:59:49;;;;;;;;;;;;;;;9.29;100.00;100451.53;5045014;28;19933;-77
2022/11/08 06:02:15;;;;;;;;;;;;;;;9.32;100.00;100448.72;5045595;28;19928;-76
2022/11/08 06:04:41;;;;;;;;;;;;;;;9.35;100.00;100431.88;5045565;28;20249;-74
2022/11/08 06:07:06;;;;;;;;;;;;;;;9.40;100.00;100431.66;5044999;28;19928;-76
2022/11/08 06:09:31;;;;;;;;;;;;;;;9.43;100.00;100428.88;5025501;28;19925;-76
2022/11/08 06:11:57;;;;;;;;;;;;;;;9.46;100.00;100434.00;5023665;28;19929;-76
2022/11/08 06:14:22;;;;;;;;;;;;;;;9.48;100.00;100437.47;5024735;28;20445;-77
2022/11/08 06:16:47;;;;;;;;;;;;;;;9.48;100.00;100432.19;5025553;28;20407;-76
2022/11/08 06:19:13;;;;;;;;;;;;;;;9.49;100.00;100424.16;5027419;28;19932;-77
2022/11/08 06:21:38;;;;;;;;;;;;;;;9.50;100.00;100425.84;5056915;28;19968;-75
2022/11/08 06:24:04;;;;;;;;;;;;;;;9.51;100.00;100421.44;5024843;28;19928;-76
2022/11/08 06:26:29;;;;;;;;;;;;;;;9.51;100.00;100421.44;5043525;28;20159;-76
2022/11/08 06:28:55;;;;;;;;;;;;;;;9.50;100.00;100433.78;5012827;28;19929;-76
2022/11/08 06:31:20;;;;;;;;;;;;;;;9.51;100.00;100427.59;5024701;28;19935;-76
2022/11/08 06:33:46;;;;;;;;;;;;;;;9.53;100.00;100427.50;5024625;28;19925;-77
2022/11/08 06:36:11;;;;;;;;;;;;;;;9.54;100.00;100416.03;5040249;28;20530;-75
2022/11/08 06:38:37;;;;;;;;;;;;;;;9.54;100.00;100413.38;5023999;28;20065;-77
2022/11/08 06:41:02;;;;;;;;;;;;;;;9.54;100.00;100418.69;5022242;28;19933;-75
2022/11/08 06:43:28;;;;;;;;;;;;;;;9.53;100.00;100418.75;5026609;28;20017;-77
2022/11/08 06:45:53;;;;;;;;;;;;;;;9.51;100.00;100411.75;5039135;28;20019;-77
2022/11/08 06:48:18;;;;;;;;;;;;;;;9.52;100.00;100412.59;5023713;28;20494;-77
2022/11/08 06:50:44;;;;;;;;;;;;;;;9.50;100.00;100410.00;5024911;28;19931;-76
2022/11/08 06:53:10;;;;;;;;;;;;;;;9.50;100.00;100401.25;5021981;28;19929;-77
2022/11/08 06:55:36;;;;;;;;;;;;;;;9.50;100.00;100399.44;5026860;28;19978;-77
2022/11/08 06:58:01;;;;;;;;;;;;;;;9.48;100.00;100393.38;5022514;28;20020;-77
2022/11/08 07:00:27;;;;;;;;;;;;;;;9.47;100.00;100388.16;5039130;28;20015;-77
2022/11/08 07:02:53;;;;;;;;;;;;;;;9.46;100.00;100394.38;5022319;28;20430;-76
2022/11/08 07:05:18;;;;;;;;;;;;;;;9.45;100.00;100393.53;5024468;28;19929;-77
2022/11/08 07:07:44;;;;;;;;;;;;;;;9.46;100.00;100394.38;5022726;28;19933;-77
2022/11/08 07:10:10;;;;;;;;;;;;;;;9.46;100.00;100399.66;5026012;28;20435;-77
2022/11/08 07:12:35;;;;;;;;;;;;;;;9.47;100.00;100390.81;5026389;28;19968;-77
2022/11/08 07:15:01;;;;;;;;;;;;;;;9.49;100.00;100391.59;5055905;28;20105;-77
2022/11/08 07:17:26;;;;;;;;;;;;;;;9.49;100.00;100387.16;5024567;28;20528;-76
2022/11/08 07:19:51;;;;;;;;;;;;;;;9.49;100.00;100381.88;5024431;28;20311;-77
2022/11/08 07:22:17;;;;;;;;;;;;;;;9.51;100.00;100384.44;5023843;28;19925;-77
2022/11/08 07:24:42;;;;;;;;;;;;;;;9.51;100.00;100382.69;5025547;28;20015;-76
2022/11/08 07:27:07;;;;;;;;;;;;;;;9.52;100.00;100378.22;5042517;28;20505;-77
2022/11/08 07:29:33;;;;;;;;;;;;;;;9.54;100.00;100372.88;5015267;28;20006;-76
2022/11/08 07:31:58;;;;;;;;;;;;;;;9.52;100.00;100372.94;5024036;28;20002;-77
2022/11/08 07:34:24;;;;;;;;;;;;;;;9.53;100.00;100364.09;5024423;28;20444;-77
2022/11/08 07:36:49;;;;;;;;;;;;;;;9.54;100.00;100362.31;5015288;28;19932;-77
2022/11/08 07:39:14;;;;;;;;;;;;;;;9.54;100.00;100373.75;5042053;28;19933;-76
2022/11/08 07:41:40;;;;;;;;;;;;;;;9.51;100.00;100371.25;5015084;28;19944;-77
2022/11/08 07:44:05;;;;;;;;;;;;;;;9.51;100.00;100361.53;5019965;28;19940;-77
2022/11/08 07:46:31;;;;;;;;;;;;;;;9.54;100.00;100363.19;5032424;28;19969;-77
2022/11/08 07:48:56;;;;;;;;;;;;;;;9.55;100.00;100348.16;5038532;28;19929;-76
2022/11/08 07:51:21;;;;;;;;;;;;;;;9.56;100.00;100350.72;5027082;28;19976;-77
2022/11/08 07:53:47;;;;;;;;;;;;;;;9.56;100.00;100345.44;5023195;28;19940;-77
2022/11/08 07:56:13;;;;;;;;;;;;;;;9.58;100.00;100362.06;5028853;28;20618;-77
2022/11/08 07:58:38;;;;;;;;;;;;;;;9.61;100.00;100353.16;5020791;28;19929;-77
2022/11/08 08:01:04;;;;;;;;;;;;;;;9.62;100.00;100346.91;5025017;28;19933;-77
2022/11/08 08:03:30;;;;;;;;;;;;;;;9.65;100.00;100344.97;5020327;28;19940;-77
2022/11/08 08:05:55;;;;;;;;;;;;;;;9.70;100.00;100343.91;5022830;28;19929;-76
2022/11/08 08:08:21;;;;;;;;;;;;;;;9.73;100.00;100335.81;5023454;28;20312;-76
2022/11/08 08:10:46;;;;;;;;;;;;;;;9.75;100.00;100339.25;5027539;28;20012;-76
2022/11/08 08:13:12;;;;;;;;;;;;;;;9.78;100.00;100336.44;5042328;28;20019;-76
2022/11/08 08:15:37;;;;;;;;;;;;;;;9.84;100.00;100345.84;5027009;28;20031;-77
2022/11/08 08:18:03;;;;;;;;;;;;;;;9.87;100.00;100343.06;5043377;28;19924;-76
2022/11/08 08:20:29;;;;;;;;;;;;;;;9.87;100.00;100351.84;5027386;28;20532;-77
2022/11/08 08:22:55;;;;;;;;;;;;;;;9.88;100.00;100344.78;5040683;28;19932;-77
2022/11/08 08:25:20;;;;;;;;;;;;;;;9.89;100.00;100347.34;5040319;28;21813;-75
2022/11/08 08:27:46;;;;;;;;;;;;;;;9.91;100.00;100361.34;5023318;28;19928;-77
2022/11/08 08:30:12;;;;;;;;;;;;;;;9.94;100.00;100351.53;5043729;28;20080;-76
2022/11/08 08:32:37;;;;;;;;;;;;;;;9.99;100.00;100341.56;5027348;28;19932;-77
2022/11/08 08:35:03;;;;;;;;;;;;;;;10.04;100.00;100340.41;5023485;28;19994;-76
2022/11/08 08:37:28;;;;;;;;;;;;;;;10.10;100.00;100333.09;5042590;28;19960;-77
2022/11/08 08:39:54;;;;;;;;;;;;;;;10.16;100.00;100344.22;5028580;28;19938;-77
2022/11/08 08:42:19;;;;;;;;;;;;;;;10.22;100.00;100337.75;5028605;28;19936;-76
2022/11/08 08:44:45;;;;;;;;;;;;;;;10.28;100.00;100340.06;5023001;28;19940;-77
2022/11/08 08:47:10;;;;;;;;;;;;;;;10.31;100.00;100336.41;5032528;28;19929;-76
2022/11/08 08:49:35;;;;;;;;;;;;;;;10.35;100.00;100331.81;5023188;28;19939;-76
2022/11/08 08:52:01;;;;;;;;;;;;;;;10.38;100.00;100337.81;5016176;28;20042;-76
2022/11/08 08:54:26;;;;;;;;;;;;;;;10.41;100.00;100334.97;5042299;28;20090;-76
2022/11/08 08:56:52;;;;;;;;;;;;;;;10.45;100.00;100343.66;5042797;28;20376;-77
2022/11/08 08:59:17;;;;;;;;;;;;;;;10.48;100.00;100337.34;5042520;28;19925;-77
2022/11/08 09:01:43;;;;;;;;;;;;;;;10.52;100.00;100344.19;5042414;28;20427;-77
2022/11/08 09:04:08;;;;;;;;;;;;;;;10.57;100.00;100342.16;5026632;28;19929;-77
2022/11/08 09:06:34;;;;;;;;;;;;;;;10.59;100.00;100340.28;5042084;28;19954;-77
2022/11/08 09:08:59;;;;;;;;;;;;;;;10.62;100.00;100340.09;5026412;28;19925;-77
2022/11/08 09:11:24;;;;;;;;;;;;;;;10.65;100.00;100339.94;5044869;28;19929;-77
2022/11/08 09:13:50;;;;;;;;;;;;;;;10.68;100.00;100339.78;5045671;28;20372;-76
2022/11/08 09:16:15;;;;;;;;;;;;;;;10.69;100.00;100336.19;5046095;28;19939;-77
2022/11/08 09:18:41;;;;;;;;;;;;;;;10.72;100.00;100329.88;5046114;28;19948;-77
2022/11/08 09:21:06;;;;;;;;;;;;;;;10.73;100.00;100319.22;5045597;28;19932;-77
2022/11/08 09:23:32;;;;;;;;;;;;;;;10.77;100.00;100308.44;5045604;28;19933;-77
2022/11/08 09:25:58;;;;;;;;;;;;;;;10.79;100.00;100307.41;5046419;28;19947;-76
2022/11/08 09:28:24;;;;;;;;;;;;;;;10.83;100.00;100305.44;5045670;28;19925;-76
2022/11/08 09:30:49;;;;;;;;;;;;;;;10.85;100.00;100300.94;5029113;28;19929;-77
2022/11/08 09:33:15;;;;;;;;;;;;;;;10.89;100.00;100320.16;5045670;28;20609;-76
2022/11/08 09:35:40;;;;;;;;;;;;;;;10.90;100.00;100322.72;5045712;28;19974;-76
2022/11/08 09:38:06;;;;;;;;;;;;;;;10.94;100.00;100318.97;5045388;28;19982;-76
2022/11/08 09:40:37;;;;;;;;;;;;;;;10.95;100.00;100323.31;5046099;28;19928;-76
2022/11/08 09:43:06;;;;;;;;;;;;;;;10.98;100.00;100322.28;5045155;28;20295;-77
2022/11/08 09:45:41;;;;;;;;;;;;;;;11.00;100.00;100308.03;5026301;28;19924;-76
2022/11/08 09:48:09;;;;;;;;;;;;;;;11.02;100.00;100300.00;5029944;28;19950;-77
2022/11/08 09:50:38;;;;;;;;;;;;;;;11.05;100.00;100306.94;5029431;28;20268;-76
2022/11/08 09:53:10;;;;;;;;;;;;;;;11.07;100.00;100303.22;5039389;28;19974;-77
2022/11/08 09:55:36;;;;;;;;;;;;;;;11.11;100.00;100302.13;5045449;28;19936;-77
2022/11/08 09:58:01;;;;;;;;;;;;;;;11.14;100.00;100288.72;5031615;28;19928;-76
2022/11/08 10:00:27;;;;;;;;;;;;;;;11.19;100.00;100290.25;5044996;28;19929;-77
2022/11/08 10:02:52;;;;;;;;;;;;;;;11.22;100.00;100308.63;5045472;28;19929;-77
2022/11/08 10:05:17;;;;;;;;;;;;;;;11.23;100.00;100324.41;5044471;28;19955;-77
2022/11/08 10:07:43;;;;;;;;;;;;;;;11.23;100.00;100300.56;5045526;28;19929;-76
2022/11/08 10:10:17;;;;;;;;;;;;;;;11.24;100.00;100304.91;5044951;28;19935;-77
2022/11/08 10:12:54;;;;;;;;;;;;;;;11.25;100.00;100319.91;5045074;28;19981;-77
2022/11/08 10:15:38;;;;;;;;;;;;;;;11.24;100.00;100320.81;5031057;28;20383;-77
2022/11/08 10:18:03;;;;;;;;;;;;;;;11.23;100.00;100316.47;5045561;28;20042;-77
2022/11/08 10:20:41;;;;;;;;;;;;;;;11.24;100.00;100320.81;5044631;28;20041;-77
2022/11/08 10:23:28;;;;;;;;;;;;;;;11.25;100.00;100324.34;5045218;28;19929;-77
2022/11/08 10:25:55;;;;;;;;;;;;;;;11.24;100.00;100315.53;5042430;28;19951;-76
2022/11/08 10:28:22;;;;;;;;;;;;;;;11.24;100.00;100320.81;5014975;28;19931;-77
2022/11/08 10:30:48;;;;;;;;;;;;;;;11.24;100.00;100312.03;5030585;28;19929;-77
2022/11/08 10:33:24;;;;;;;;;;;;;;;11.24;100.00;100298.78;5021880;28;19940;-77
2022/11/08 10:35:49;;;;;;;;;;;;;;;11.27;100.00;100299.47;5031026;28;19924;-77
2022/11/08 10:38:23;;;;;;;;;;;;;;;11.30;100.00;100286.97;5044574;28;19924;-77
2022/11/08 10:40:49;;;;;;;;;;;;;;;11.30;100.00;100303.75;5028953;28;19925;-77
2022/11/08 10:43:16;;;;;;;;;;;;;;;11.32;100.00;100301.00;5034648;28;19930;-76
2022/11/08 10:45:41;;;;;;;;;;;;;;;11.35;100.00;100300.81;5028837;28;19936;-77
2022/11/08 10:48:08;;;;;;;;;;;;;;;11.36;100.00;100297.22;5017880;28;19936;-77
2022/11/08 10:50:42;;;;;;;;;;;;;;;11.39;100.00;100300.56;5044356;28;19947;-77
2022/11/08 10:53:10;;;;;;;;;;;;;;;11.45;100.00;100295.84;5044528;28;19925;-77
2022/11/08 10:55:37;;;;;;;;;;;;;;;11.51;100.00;100280.41;5010852;28;20062;-76
2022/11/08 10:58:03;;;;;;;;;;;;;;;11.55;100.00;100266.06;5030982;28;19931;-77
2022/11/08 11:00:29;;;;;;;;;;;;;;;11.59;100.00;100273.84;5028879;28;20442;-76
2022/11/08 11:02:58;;;;;;;;;;;;;;;11.63;100.00;100283.31;5043814;28;20374;-77
2022/11/08 11:05:23;;;;;;;;;;;;;;;11.66;100.00;100277.84;5044373;28;19928;-77
2022/11/08 11:07:52;;;;;;;;;;;;;;;11.70;100.00;100271.38;5043823;28;20365;-77
2022/11/08 11:10:21;;;;;;;;;;;;;;;11.75;100.00;100269.31;5033807;28;20524;-76
2022/11/08 11:13:09;;;;;;;;;;;;;;;11.79;100.00;100278.81;5044012;28;19932;-77
2022/11/08 11:15:36;;;;;;;;;;;;;;;11.84;100.00;100293.59;5039528;28;20747;-77
2022/11/08 11:18:02;;;;;;;;;;;;;;;11.87;100.00;100285.47;5043713;28;19970;-77
2022/11/08 11:20:27;;;;;;;;;;;;;;;11.91;100.00;100286.97;5028349;28;19928;-77
2022/11/08 11:22:53;;;;;;;;;;;;;;;11.92;100.00;100284.22;5025147;28;19933;-77
2022/11/08 11:25:19;;;;;;;;;;;;;;;11.97;100.00;100289.25;5028054;28;19959;-76
2022/11/08 11:28:03;;;;;;;;;;;;;;;11.98;100.00;100280.34;5027346;28;20323;-77
2022/11/08 11:30:32;;;;;;;;;;;;;;;12.04;100.00;100277.34;5030464;28;20362;-76
2022/11/08 11:32:58;;;;;;;;;;;;;;;12.09;100.00;100277.06;5022687;28;19932;-77
2022/11/08 11:35:24;;;;;;;;;;;;;;;12.14;100.00;100290.09;5023535;28;20007;-77
2022/11/08 11:37:49;;;;;;;;;;;;;;;12.16;100.00;100281.06;5012081;28;19964;-77
2022/11/08 11:40:15;;;;;;;;;;;;;;;12.20;100.00;100287.06;5033297;28;20372;-77
2022/11/08 11:42:59;;;;;;;;;;;;;;;12.20;100.00;100287.88;5033845;28;19929;-76
2022/11/08 11:45:36;;;;;;;;;;;;;;;12.23;100.00;100292.16;5043906;28;20598;-77
2022/11/08 11:48:10;;;;;;;;;;;;;;;12.24;100.00;100283.25;5042658;28;19925;-76
2022/11/08 11:50:39;;;;;;;;;;;;;;;12.24;100.00;100277.94;5028009;28;19964;-77
2022/11/08 11:53:18;;;;;;;;;;;;;;;12.25;100.00;100276.16;5027586;28;20088;-76
2022/11/08 11:55:53;;;;;;;;;;;;;;;12.25;100.00;100274.34;5027319;28;19935;-77
2022/11/08 11:58:35;;;;;;;;;;;;;;;12.25;100.00;100278.81;5043379;28;19929;-77
2022/11/08 12:01:07;;;;;;;;;;;;;;;12.24;100.00;100269.16;5016844;28;19928;-76
2022/11/08 12:04:08;;;;;;;;;;;;;;;12.25;100.00;100284.13;5027123;28;20291;-77
2022/11/08 12:06:50;;;;;;;;;;;;;;;12.26;100.00;100260.09;5007207;28;20019;-77
2022/11/08 12:09:28;;;;;;;;;;;;;;;12.29;100.00;100251.97;5012308;28;21599;-77
2022/11/08 12:12:02;;;;;;;;;;;;;;;12.32;100.00;100259.72;5043035;28;20280;-77
2022/11/08 12:14:40;;;;;;;;;;;;;;;12.35;100.00;100251.59;5013200;28;19960;-76
2022/11/08 12:17:11;;;;;;;;;;;;;;;12.38;100.00;100247.03;5027270;28;20255;-76
2022/11/08 12:19:40;;;;;;;;;;;;;;;12.39;100.00;100260.22;5029535;28;19931;-77
2022/11/08 12:22:18;;;;;;;;;;;;;;;12.45;100.00;100262.50;5042861;28;19977;-76
2022/11/08 12:24:43;;;;;;;;;;;;;;;12.48;100.00;100253.50;5040311;28;19936;-77
2022/11/08 12:27:22;;;;;;;;;;;;;;;12.51;100.00;100258.59;5043009;28;19982;-77
2022/11/08 12:29:56;;;;;;;;;;;;;;;12.50;100.00;100259.53;5024097;28;19931;-77
2022/11/08 12:32:54;;;;;;;;;;;;;;;12.52;100.00;100259.47;5042914;28;19964;-77
2022/11/08 12:35:22;;;;;;;;;;;;;;;12.56;100.00;100260.94;5032714;28;21531;-77
2022/11/08 12:37:51;;;;;;;;;;;;;;;12.57;100.00;100260.00;5042773;28;20572;-77
2022/11/08 12:40:35;;;;;;;;;;;;;;;12.59;100.00;100266.09;5043667;28;19928;-77
2022/11/08 12:43:01;;;;;;;;;;;;;;;12.60;100.00;100262.47;5032845;28;19928;-77
2022/11/08 12:45:26;;;;;;;;;;;;;;;12.60;100.00;100255.34;5016760;28;19929;-77
2022/11/08 12:47:57;;;;;;;;;;;;;;;12.61;100.00;100257.06;5046302;28;20131;-77
2022/11/08 12:50:32;;;;;;;;;;;;;;;12.65;100.00;100260.38;5031501;28;19924;-76